createdAt,value
2018-07-13T00:00:36.669Z,5.53
2018-07-13T00:03:05.396Z,5.42
2018-07-13T00:05:34.021Z,5.15
2018-07-13T00:08:02.573Z,5.58
2018-07-13T00:10:31.842Z,5.78
2018-07-13T00:13:00.527Z,5.28
2018-07-13T00:15:29.424Z,5.72
2018-07-13T00:17:57.939Z,5.75
2018-07-13T00:20:29.228Z,6.03
2018-07-13T00:23:02.274Z,5.70
2018-07-13T00:25:32.228Z,5.78
2018-07-13T00:28:00.923Z,6.17
2018-07-13T00:30:29.528Z,5.45
2018-07-13T00:32:58.373Z,5.80
2018-07-13T00:35:26.980Z,5.17
2018-07-13T00:37:55.637Z,5.45
2018-07-13T00:40:24.811Z,6.12
2018-07-13T00:42:53.531Z,6.53
2018-07-13T00:45:22.177Z,6.25
2018-07-13T00:47:50.769Z,7.33
2018-07-13T00:50:19.864Z,6.87
2018-07-13T00:52:48.624Z,7.08
2018-07-13T00:55:17.309Z,7.25
2018-07-13T00:57:46.008Z,7.05
2018-07-13T01:00:14.550Z,6.83
2018-07-13T01:02:43.072Z,6.83
2018-07-13T01:05:11.797Z,7.65
2018-07-13T01:07:40.487Z,6.78
2018-07-13T01:10:09.063Z,6.80
2018-07-13T01:12:38.083Z,7.03
2018-07-13T01:15:07.006Z,6.40
2018-07-13T01:17:35.580Z,7.45
2018-07-13T01:20:04.239Z,6.92
2018-07-13T01:22:33.137Z,6.20
2018-07-13T01:25:01.731Z,6.10
2018-07-13T01:27:30.473Z,7.00
2018-07-13T01:29:59.965Z,6.20
2018-07-13T01:32:28.583Z,6.45
2018-07-13T01:34:57.115Z,6.65
2018-07-13T01:37:25.850Z,6.60
2018-07-13T01:39:54.164Z,7.33
2018-07-13T01:42:22.758Z,6.67
2018-07-13T01:44:51.449Z,6.92
2018-07-13T01:47:20.227Z,7.37
2018-07-13T01:49:48.919Z,6.78
2018-07-13T01:52:18.137Z,7.00
2018-07-13T01:54:46.709Z,7.55
2018-07-13T01:57:16.623Z,8.20
2018-07-13T01:59:45.269Z,7.30
2018-07-13T02:02:14.960Z,7.08
2018-07-13T02:04:43.513Z,7.97
2018-07-13T02:07:12.111Z,7.72
2018-07-13T02:09:41.308Z,8.73
2018-07-13T02:12:11.013Z,8.33
2018-07-13T02:14:39.401Z,8.05
2018-07-13T02:17:08.479Z,7.80
2018-07-13T02:19:37.468Z,7.90
2018-07-13T02:22:06.118Z,8.60
2018-07-13T02:24:34.761Z,8.50
2018-07-13T02:27:03.598Z,8.28
2018-07-13T02:29:32.259Z,8.03
2018-07-13T02:32:00.826Z,8.28
2018-07-13T02:34:29.655Z,8.00
2018-07-13T02:36:58.698Z,8.70
2018-07-13T02:39:27.337Z,8.53
2018-07-13T02:41:56.280Z,8.50
2018-07-13T02:44:26.062Z,8.78
2018-07-13T02:46:56.032Z,9.48
2018-07-13T02:49:24.983Z,9.43
2018-07-13T02:51:55.226Z,9.83
2018-07-13T02:54:24.355Z,10.15
2018-07-13T02:56:55.320Z,9.25
2018-07-13T02:59:25.337Z,9.05
2018-07-13T03:01:55.188Z,10.13
2018-07-13T03:04:24.265Z,9.55
2018-07-13T03:06:52.941Z,8.65
2018-07-13T03:09:21.605Z,9.93
2018-07-13T03:11:50.245Z,10.13
2018-07-13T03:14:18.877Z,10.10
2018-07-13T03:16:47.763Z,10.20
2018-07-13T03:19:17.056Z,11.10
2018-07-13T03:21:45.710Z,11.22
2018-07-13T03:24:14.415Z,10.15
2018-07-13T03:26:43.058Z,10.60
2018-07-13T03:29:11.952Z,10.43
2018-07-13T03:31:40.963Z,11.28
2018-07-13T03:34:09.634Z,11.08
2018-07-13T03:36:38.838Z,11.20
2018-07-13T03:39:07.498Z,10.65
2018-07-13T03:41:36.132Z,11.53
2018-07-13T03:44:04.705Z,9.85
2018-07-13T03:46:33.316Z,11.38
2018-07-13T03:49:02.242Z,12.33
2018-07-13T03:51:30.847Z,10.58
2018-07-13T03:53:59.382Z,11.55
2018-07-13T03:56:28.384Z,11.80
2018-07-13T03:58:57.023Z,11.33
2018-07-13T04:01:25.658Z,12.05
2018-07-13T04:03:54.274Z,11.78
2018-07-13T04:06:23.083Z,11.90
2018-07-13T04:08:52.033Z,11.88
2018-07-13T04:11:20.861Z,11.28
2018-07-13T04:13:49.511Z,11.45
2018-07-13T04:16:18.523Z,11.20
2018-07-13T04:18:48.114Z,11.28
2018-07-13T04:21:17.300Z,11.40
2018-07-13T04:23:46.423Z,10.90
2018-07-13T04:26:15.298Z,11.28
2018-07-13T04:28:44.019Z,11.15
2018-07-13T04:31:12.563Z,10.82
2018-07-13T04:33:41.365Z,10.80
2018-07-13T04:36:10.069Z,10.75
2018-07-13T04:38:38.788Z,11.22
2018-07-13T04:41:07.442Z,11.70
2018-07-13T04:43:35.950Z,10.40
2018-07-13T04:46:04.963Z,11.35
2018-07-13T04:48:34.209Z,11.38
2018-07-13T04:51:02.288Z,10.78
2018-07-13T04:53:30.927Z,10.90
2018-07-13T04:55:59.772Z,10.65
2018-07-13T04:58:28.717Z,10.58
2018-07-13T05:00:57.459Z,10.60
2018-07-13T05:03:26.111Z,9.68
2018-07-13T05:05:54.799Z,10.50
2018-07-13T05:08:23.497Z,10.15
2018-07-13T05:10:54.973Z,10.58
2018-07-13T05:13:24.393Z,10.20
2018-07-13T05:15:53.305Z,10.98
2018-07-13T05:18:22.306Z,9.50
2018-07-13T05:20:51.137Z,9.63
2018-07-13T05:23:19.791Z,10.25
2018-07-13T05:25:49.524Z,9.38
2018-07-13T05:28:18.214Z,9.70
2018-07-13T05:30:47.132Z,9.33
2018-07-13T05:33:15.799Z,9.60
2018-07-13T05:35:44.449Z,8.95
2018-07-13T05:38:13.076Z,9.38
2018-07-13T05:40:41.703Z,8.68
2018-07-13T05:43:10.827Z,9.18
2018-07-13T05:45:39.729Z,8.45
2018-07-13T05:48:08.468Z,8.60
2018-07-13T05:50:37.063Z,8.65
2018-07-13T05:53:06.127Z,8.68
2018-07-13T05:55:35.051Z,8.53
2018-07-13T05:58:03.754Z,8.00
2018-07-13T06:00:32.387Z,7.80
2018-07-13T06:03:01.003Z,7.45
2018-07-13T06:05:29.670Z,7.37
2018-07-13T06:07:58.256Z,7.15
2018-07-13T06:10:26.849Z,7.05
2018-07-13T06:12:55.520Z,7.75
2018-07-13T06:15:24.043Z,7.45
2018-07-13T06:17:52.623Z,7.58
2018-07-13T06:20:21.225Z,7.30
2018-07-13T06:22:49.813Z,7.55
2018-07-13T06:25:18.613Z,7.70
2018-07-13T06:27:47.353Z,7.17
2018-07-13T06:30:15.962Z,6.53
2018-07-13T06:32:44.996Z,6.80
2018-07-13T06:35:13.517Z,6.92
2018-07-13T06:37:42.824Z,6.67
2018-07-13T06:40:11.527Z,6.90
2018-07-13T06:42:40.289Z,6.25
2018-07-13T06:45:09.004Z,5.55
2018-07-13T06:47:38.427Z,5.92
2018-07-13T06:50:07.298Z,5.80
2018-07-13T06:52:36.054Z,5.65
2018-07-13T06:55:04.714Z,6.03
2018-07-13T06:57:44.605Z,6.05
2018-07-13T07:01:16.472Z,5.42
2018-07-13T07:04:19.438Z,5.17
2018-07-13T07:06:48.172Z,5.65
2018-07-13T07:09:16.788Z,5.22
2018-07-13T07:11:56.757Z,5.55
2018-07-13T07:14:25.324Z,5.55
2018-07-13T07:16:53.989Z,4.45
2018-07-13T07:19:25.901Z,3.92
2018-07-13T07:21:54.489Z,4.50
2018-07-13T07:24:23.053Z,4.65
2018-07-13T07:26:52.016Z,4.45
2018-07-13T07:29:20.740Z,3.80
2018-07-13T07:31:50.457Z,4.03
2018-07-13T07:34:19.532Z,3.40
2018-07-13T07:36:48.289Z,3.00
2018-07-13T07:39:16.954Z,3.02
2018-07-13T07:41:45.575Z,3.15
2018-07-13T07:44:14.136Z,2.90
2018-07-13T07:46:42.692Z,3.00
2018-07-13T07:49:11.499Z,2.70
2018-07-13T07:51:39.812Z,2.75
2018-07-13T07:54:08.468Z,2.62
2018-07-13T07:56:37.129Z,2.85
2018-07-13T07:59:06.136Z,2.60
2018-07-13T08:01:35.143Z,2.33
2018-07-13T08:04:05.662Z,2.12
2018-07-13T08:06:34.581Z,2.47
2018-07-13T08:09:05.264Z,2.60
2018-07-13T08:11:34.076Z,2.83
2018-07-13T08:14:04.691Z,2.40
2018-07-13T08:16:34.209Z,2.70
2018-07-13T08:19:03.379Z,2.33
2018-07-13T08:21:32.361Z,2.70
2018-07-13T08:24:03.315Z,2.27
2018-07-13T08:26:32.066Z,2.60
2018-07-13T08:29:00.783Z,2.20
2018-07-13T08:31:29.381Z,2.05
2018-07-13T08:33:59.215Z,2.42
2018-07-13T08:36:27.758Z,2.45
2018-07-13T08:38:56.307Z,2.02
2018-07-13T08:41:25.209Z,2.27
2018-07-13T08:43:54.584Z,1.92
2018-07-13T08:46:23.417Z,2.02
2018-07-13T08:48:52.611Z,1.92
2018-07-13T08:51:21.909Z,2.08
2018-07-13T08:53:52.004Z,2.20
2018-07-13T08:56:20.752Z,2.10
2018-07-13T08:58:49.566Z,2.20
2018-07-13T09:01:18.449Z,2.08
2018-07-13T09:03:48.059Z,2.02
2018-07-13T09:06:16.812Z,2.08
2018-07-13T09:08:45.966Z,2.00
2018-07-13T09:11:15.076Z,2.05
2018-07-13T09:13:43.910Z,2.00
2018-07-13T09:16:13.719Z,1.50
2018-07-13T09:18:42.375Z,1.87
2018-07-13T09:21:10.914Z,1.75
2018-07-13T09:23:40.700Z,2.10
2018-07-13T09:26:09.599Z,2.33
2018-07-13T09:28:39.205Z,2.20
2018-07-13T09:31:10.063Z,2.30
2018-07-13T09:33:38.709Z,2.05
2018-07-13T09:36:07.829Z,2.37
2018-07-13T09:38:36.442Z,1.90
2018-07-13T09:41:05.145Z,2.05
2018-07-13T09:43:34.052Z,2.02
2018-07-13T09:46:03.440Z,2.10
2018-07-13T09:48:32.320Z,1.77
2018-07-13T09:51:01.102Z,1.80
2018-07-13T09:53:29.769Z,1.90
2018-07-13T09:55:58.375Z,2.00
2018-07-13T09:58:34.700Z,2.02
2018-07-13T10:01:09.254Z,2.37
2018-07-13T10:03:38.263Z,2.15
2018-07-13T10:06:06.904Z,2.45
2018-07-13T10:08:35.905Z,2.20
2018-07-13T10:11:04.629Z,2.20
2018-07-13T10:13:34.000Z,2.35
2018-07-13T10:16:03.003Z,2.50
2018-07-13T10:18:32.418Z,2.25
2018-07-13T10:21:01.401Z,2.50
2018-07-13T10:23:30.541Z,2.80
2018-07-13T10:26:03.841Z,2.40
2018-07-13T10:28:34.769Z,2.27
2018-07-13T10:31:03.496Z,2.40
2018-07-13T10:33:33.710Z,2.47
2018-07-13T10:36:02.418Z,2.52
2018-07-13T10:38:31.436Z,2.45
2018-07-13T10:41:00.148Z,2.80
2018-07-13T10:43:28.831Z,2.20
2018-07-13T10:45:57.493Z,2.50
2018-07-13T10:48:26.322Z,2.60
2018-07-13T10:50:54.907Z,2.40
2018-07-13T10:53:23.446Z,2.17
2018-07-13T10:55:52.741Z,2.30
2018-07-13T10:58:21.440Z,2.67
2018-07-13T11:00:49.993Z,2.30
2018-07-13T11:03:18.295Z,2.40
2018-07-13T11:05:48.008Z,2.20
2018-07-13T11:08:17.614Z,2.27
2018-07-13T11:10:46.271Z,2.40
2018-07-13T11:13:14.936Z,2.42
2018-07-13T11:15:43.559Z,2.47
2018-07-13T11:18:12.186Z,2.37
2018-07-13T11:20:40.937Z,2.40
2018-07-13T11:23:09.511Z,2.20
2018-07-13T11:25:38.868Z,2.17
2018-07-13T11:28:07.480Z,2.35
2018-07-13T11:30:35.969Z,2.58
2018-07-13T11:33:04.530Z,2.35
2018-07-13T11:35:33.076Z,2.35
2018-07-13T11:38:01.719Z,2.10
2018-07-13T11:40:30.279Z,2.58
2018-07-13T11:42:59.116Z,2.40
2018-07-13T11:45:28.141Z,2.62
2018-07-13T11:47:56.785Z,2.50
2018-07-13T11:50:25.376Z,2.35
2018-07-13T11:52:54.480Z,2.52
2018-07-13T11:55:23.073Z,2.27
2018-07-13T11:57:51.881Z,2.17
2018-07-13T12:00:20.442Z,2.30
2018-07-13T12:02:49.102Z,2.15
2018-07-13T12:05:17.697Z,2.25
2018-07-13T12:07:46.970Z,2.12
2018-07-13T12:10:15.459Z,2.40
2018-07-13T12:12:44.152Z,2.22
2018-07-13T12:15:12.561Z,2.50
2018-07-13T12:17:41.222Z,2.37
2018-07-13T12:20:09.700Z,2.75
2018-07-13T12:22:38.928Z,2.30
2018-07-13T12:25:07.543Z,2.65
2018-07-13T12:27:36.095Z,2.80
2018-07-13T12:30:04.626Z,2.55
2018-07-13T12:32:33.466Z,2.75
2018-07-13T12:35:02.051Z,2.60
2018-07-13T12:37:30.757Z,2.65
2018-07-13T12:39:59.310Z,2.85
2018-07-13T12:42:27.792Z,2.80
2018-07-13T12:44:56.923Z,2.95
2018-07-13T12:47:25.493Z,2.83
2018-07-13T12:49:54.023Z,3.10
2018-07-13T12:52:23.229Z,2.70
2018-07-13T12:54:51.881Z,3.27
2018-07-13T12:57:20.903Z,3.02
2018-07-13T12:59:49.454Z,3.80
2018-07-13T13:02:18.076Z,4.00
2018-07-13T13:04:46.683Z,3.85
2018-07-13T13:07:15.744Z,3.10
2018-07-13T13:09:44.451Z,3.25
2018-07-13T13:12:12.937Z,3.05
2018-07-13T13:14:41.446Z,2.90
2018-07-13T13:17:09.983Z,2.90
2018-07-13T13:19:38.669Z,2.37
2018-07-13T13:22:07.390Z,2.72
2018-07-13T13:24:35.937Z,3.17
2018-07-13T13:27:04.524Z,3.47
2018-07-13T13:29:33.241Z,2.83
2018-07-13T13:32:02.405Z,2.90
2018-07-13T13:34:30.987Z,3.00
2018-07-13T13:36:59.553Z,2.55
2018-07-13T13:39:28.106Z,2.85
2018-07-13T13:41:56.642Z,3.02
2018-07-13T13:44:25.719Z,2.98
2018-07-13T13:46:54.424Z,3.00
2018-07-13T13:49:23.387Z,3.05
2018-07-13T13:51:52.378Z,3.40
2018-07-13T13:54:20.977Z,3.12
2018-07-13T13:56:49.491Z,3.27
2018-07-13T13:59:18.217Z,3.50
2018-07-13T14:01:46.818Z,3.50
2018-07-13T14:04:15.454Z,2.85
2018-07-13T14:06:43.948Z,3.30
2018-07-13T14:09:12.534Z,3.00
2018-07-13T14:11:40.729Z,3.15
2018-07-13T14:14:09.311Z,3.30
2018-07-13T14:16:37.957Z,2.70
2018-07-13T14:19:06.497Z,2.92
2018-07-13T14:21:34.994Z,3.05
2018-07-13T14:24:03.725Z,2.83
2018-07-13T14:26:32.604Z,2.80
2018-07-13T14:29:01.168Z,2.95
2018-07-13T14:31:29.728Z,3.00
2018-07-13T14:33:58.241Z,3.20
2018-07-13T14:36:26.753Z,3.27
2018-07-13T14:38:55.300Z,3.10
2018-07-13T14:41:24.357Z,2.90
2018-07-13T14:43:53.233Z,2.77
2018-07-13T14:46:22.114Z,3.10
2018-07-13T14:48:51.399Z,3.02
2018-07-13T14:51:20.355Z,2.75
2018-07-13T14:53:49.062Z,2.80
2018-07-13T14:56:18.073Z,2.85
2018-07-13T14:58:46.655Z,3.12
2018-07-13T15:01:15.710Z,3.02
2018-07-13T15:03:44.240Z,3.40
2018-07-13T15:06:12.895Z,3.70
2018-07-13T15:08:41.396Z,3.85
2018-07-13T15:11:10.368Z,3.20
2018-07-13T15:13:39.054Z,3.50
2018-07-13T15:16:07.608Z,3.22
2018-07-13T15:18:36.143Z,3.08
2018-07-13T15:21:04.927Z,3.10
2018-07-13T15:23:33.609Z,3.40
2018-07-13T15:26:02.161Z,3.70
2018-07-13T15:28:30.808Z,3.17
2018-07-13T15:30:59.362Z,3.22
2018-07-13T15:33:27.894Z,3.47
2018-07-13T15:35:56.428Z,3.33
2018-07-13T15:38:25.334Z,3.77
2018-07-13T15:40:54.201Z,3.75
2018-07-13T15:43:22.919Z,3.98
2018-07-13T15:45:51.403Z,3.45
2018-07-13T15:48:20.036Z,3.70
2018-07-13T15:50:48.712Z,3.83
2018-07-13T15:53:17.225Z,3.50
2018-07-13T15:55:51.265Z,4.10
2018-07-13T15:58:20.047Z,3.83
2018-07-13T16:00:48.952Z,4.10
2018-07-13T16:03:17.631Z,4.20
2018-07-13T16:05:46.663Z,4.05
2018-07-13T16:08:15.543Z,4.03
2018-07-13T16:10:44.272Z,4.12
2018-07-13T16:13:12.818Z,3.52
2018-07-13T16:15:41.514Z,3.50
2018-07-13T16:18:10.025Z,3.90
2018-07-13T16:20:39.036Z,3.85
2018-07-13T16:23:07.649Z,4.30
2018-07-13T16:25:36.163Z,4.83
2018-07-13T16:28:04.953Z,4.60
2018-07-13T16:30:33.546Z,4.95
2018-07-13T16:33:02.122Z,4.62
2018-07-13T16:35:30.630Z,4.78
2018-07-13T16:37:59.510Z,4.80
2018-07-13T16:40:28.100Z,4.78
2018-07-13T16:42:56.588Z,4.72
2018-07-13T16:45:25.420Z,4.22
2018-07-13T16:47:54.326Z,4.40
2018-07-13T16:50:23.214Z,5.03
2018-07-13T16:52:51.899Z,4.70
2018-07-13T16:55:20.953Z,4.17
2018-07-13T16:57:49.556Z,5.03
2018-07-13T17:00:18.578Z,4.30
2018-07-13T17:02:47.367Z,4.67
2018-07-13T17:05:16.199Z,4.20
2018-07-13T17:07:45.218Z,3.85
2018-07-13T17:10:13.733Z,4.72
2018-07-13T17:12:42.269Z,4.42
2018-07-13T17:15:10.863Z,4.65
2018-07-13T17:17:39.645Z,4.50
2018-07-13T17:20:08.257Z,4.75
2018-07-13T17:22:36.765Z,5.58
2018-07-13T17:25:06.234Z,4.85
2018-07-13T17:27:34.752Z,5.05
2018-07-13T17:30:03.618Z,4.90
2018-07-13T17:32:32.170Z,4.80
2018-07-13T17:35:00.713Z,4.78
2018-07-13T17:37:29.255Z,4.47
2018-07-13T17:39:58.105Z,4.65
2018-07-13T17:42:26.749Z,4.92
2018-07-13T17:44:55.330Z,5.20
2018-07-13T17:47:24.545Z,4.78
2018-07-13T17:49:54.240Z,4.75
2018-07-13T17:52:23.360Z,4.85
2018-07-13T17:54:51.916Z,4.85
2018-07-13T17:57:20.506Z,4.95
2018-07-13T17:59:49.998Z,4.45
2018-07-13T18:02:18.929Z,4.42
2018-07-13T18:04:48.119Z,4.80
2018-07-13T18:07:16.785Z,5.03
2018-07-13T18:09:45.987Z,5.10
2018-07-13T18:12:14.523Z,5.20
2018-07-13T18:14:43.077Z,5.17
2018-07-13T18:17:11.653Z,5.10
2018-07-13T18:19:41.332Z,5.35
2018-07-13T18:22:09.979Z,4.53
2018-07-13T18:24:39.118Z,5.65
2018-07-13T18:27:07.730Z,5.75
2018-07-13T18:29:36.261Z,5.33
2018-07-13T18:32:05.820Z,5.22
2018-07-13T18:34:34.410Z,6.22
2018-07-13T18:37:03.028Z,6.50
2018-07-13T18:39:31.588Z,5.10
2018-07-13T18:42:00.240Z,5.60
2018-07-13T18:44:28.844Z,5.53
2018-07-13T18:46:57.384Z,5.65
2018-07-13T18:49:25.936Z,5.60
2018-07-13T18:51:54.837Z,5.08
2018-07-13T18:54:23.360Z,5.00
2018-07-13T18:56:52.425Z,4.62
2018-07-13T18:59:21.032Z,4.90
2018-07-13T19:01:49.584Z,4.85
2018-07-13T19:04:18.625Z,4.70
2018-07-13T19:06:47.262Z,4.75
2018-07-13T19:09:18.780Z,5.00
2018-07-13T19:11:47.842Z,5.05
2018-07-13T19:14:16.983Z,5.25
2018-07-13T19:16:45.482Z,5.33
2018-07-13T19:19:14.182Z,5.50
2018-07-13T19:21:42.727Z,5.47
2018-07-13T19:24:11.463Z,6.03
2018-07-13T19:26:40.270Z,5.30
2018-07-13T19:29:08.903Z,5.37
2018-07-13T19:31:37.554Z,5.75
2018-07-13T19:34:06.516Z,5.20
2018-07-13T19:36:35.183Z,5.45
2018-07-13T19:39:04.948Z,5.25
2018-07-13T19:41:33.555Z,5.22
2018-07-13T19:44:02.113Z,5.00
2018-07-13T19:46:30.714Z,5.00
2018-07-13T19:48:59.303Z,5.12
2018-07-13T19:51:27.914Z,4.78
2018-07-13T19:53:57.083Z,5.17
2018-07-13T19:56:25.712Z,5.00
2018-07-13T19:58:54.294Z,5.40
2018-07-13T20:01:23.100Z,5.10
2018-07-13T20:03:52.504Z,5.08
2018-07-13T20:06:21.836Z,5.60
2018-07-13T20:08:51.222Z,4.65
2018-07-13T20:11:21.436Z,5.10
2018-07-13T20:13:50.847Z,5.05
2018-07-13T20:16:20.408Z,5.42
2018-07-13T20:18:51.480Z,5.12
2018-07-13T20:21:28.521Z,5.00
2018-07-13T20:23:59.783Z,5.15
2018-07-13T20:26:29.127Z,5.10
2018-07-13T20:28:57.954Z,4.67
2018-07-13T20:31:27.382Z,5.17
2018-07-13T20:33:56.361Z,5.67
2018-07-13T20:36:29.465Z,5.60
2018-07-13T20:39:00.200Z,5.55
2018-07-13T20:41:29.021Z,5.12
2018-07-13T20:43:57.890Z,5.70
2018-07-13T20:46:26.993Z,5.40
2018-07-13T20:48:56.863Z,5.78
2018-07-13T20:51:25.602Z,4.92
2018-07-13T20:53:56.010Z,5.22
2018-07-13T20:56:26.486Z,5.50
2018-07-13T20:58:58.099Z,5.75
2018-07-13T21:01:30.171Z,6.05
2018-07-13T21:04:02.357Z,6.25
2018-07-13T21:06:31.668Z,5.90
2018-07-13T21:09:01.629Z,5.60
2018-07-13T21:11:33.292Z,5.62
2018-07-13T21:14:04.925Z,5.28
2018-07-13T21:16:35.172Z,5.65
2018-07-13T21:19:08.472Z,5.70
2018-07-13T21:21:39.865Z,5.58
2018-07-13T21:24:11.557Z,5.20
2018-07-13T21:26:42.080Z,5.47
2018-07-13T21:29:13.112Z,5.85
2018-07-13T21:31:43.688Z,5.10
2018-07-13T21:34:12.493Z,5.40
2018-07-13T21:36:42.060Z,7.85
2018-07-13T21:39:12.773Z,8.90
2018-07-13T21:41:43.293Z,6.85
2018-07-13T21:44:13.250Z,6.08
2018-07-13T21:46:41.877Z,5.70
2018-07-13T21:49:11.196Z,6.40
2018-07-13T21:51:41.346Z,5.62
2018-07-13T21:54:10.587Z,6.17
2018-07-13T21:56:39.068Z,6.20
2018-07-13T21:59:09.057Z,6.08
2018-07-13T22:01:39.415Z,5.85
2018-07-13T22:04:10.319Z,5.50
2018-07-13T22:06:39.935Z,6.00
2018-07-13T22:09:10.139Z,6.10
2018-07-13T22:11:40.580Z,6.15
2018-07-13T22:14:10.452Z,5.72
2018-07-13T22:16:40.308Z,5.60
2018-07-13T22:19:10.126Z,6.03
2018-07-13T22:21:40.824Z,6.58
2018-07-13T22:24:11.174Z,6.30
2018-07-13T22:26:41.379Z,6.78
2018-07-13T22:29:11.826Z,6.15
2018-07-13T22:31:42.868Z,6.53
2018-07-13T22:34:13.056Z,6.45
2018-07-13T22:36:43.822Z,6.58
2018-07-13T22:39:12.602Z,6.62
2018-07-13T22:41:43.398Z,6.78
2018-07-13T22:44:13.556Z,6.70
2018-07-13T22:46:42.232Z,6.90
2018-07-13T22:49:12.144Z,7.25
2018-07-13T22:51:41.344Z,6.70
2018-07-13T22:54:10.859Z,7.05
2018-07-13T22:56:41.059Z,6.85
2018-07-13T22:59:10.082Z,7.28
2018-07-13T23:01:39.497Z,6.58
2018-07-13T23:04:08.198Z,6.83
2018-07-13T23:06:37.034Z,6.80
2018-07-13T23:09:06.341Z,6.67
2018-07-13T23:11:35.323Z,6.45
2018-07-13T23:14:03.862Z,6.25
2018-07-13T23:16:32.671Z,6.85
2018-07-13T23:19:01.184Z,6.62
2018-07-13T23:21:29.837Z,6.55
2018-07-13T23:23:58.919Z,6.42
2018-07-13T23:26:28.020Z,6.37
2018-07-13T23:28:56.572Z,6.75
2018-07-13T23:31:25.468Z,6.40
2018-07-13T23:33:54.405Z,6.45
2018-07-13T23:36:23.053Z,6.47
2018-07-13T23:38:51.658Z,6.58
2018-07-13T23:41:20.288Z,7.15
2018-07-13T23:43:48.989Z,6.83
2018-07-13T23:46:17.850Z,7.08
2018-07-13T23:48:46.639Z,6.97
2018-07-13T23:51:15.977Z,7.55
2018-07-13T23:53:44.743Z,7.12
2018-07-13T23:56:13.439Z,6.85
2018-07-13T23:58:42.236Z,7.12
